sensor_id;sensor_type;location;lat;lon;timestamp;P1;durP1;ratioP1;P2;durP2;ratioP2
54037;SDS011;39954;48.844;9.726;2023-05-07T00:00:57;550.03;;;35.65;;
54037;SDS011;39954;48.844;9.726;2023-05-07T00:02:03;558.60;;;36.33;;
54037;SDS011;39954;48.844;9.726;2023-05-07T00:03:09;573.60;;;36.03;;
54037;SDS011;39954;48.844;9.726;2023-05-07T00:04:11;476.80;;;31.23;;
54037;SDS011;39954;48.844;9.726;2023-05-07T00:05:16;610.72;;;40.33;;
54037;SDS011;39954;48.844;9.726;2023-05-07T00:06:19;563.70;;;35.70;;
54037;SDS011;39954;48.844;9.726;2023-05-07T00:07:24;588.03;;;38.50;;
54037;SDS011;39954;48.844;9.726;2023-05-07T00:08:26;531.72;;;35.20;;
54037;SDS011;39954;48.844;9.726;2023-05-07T00:09:30;604.78;;;38.55;;
54037;SDS011;39954;48.844;9.726;2023-05-07T00:10:33;648.40;;;42.28;;
54037;SDS011;39954;48.844;9.726;2023-05-07T00:11:38;329.65;;;20.27;;
54037;SDS011;39954;48.844;9.726;2023-05-07T00:12:40;584.88;;;36.97;;
54037;SDS011;39954;48.844;9.726;2023-05-07T00:13:45;444.65;;;28.95;;
54037;SDS011;39954;48.844;9.726;2023-05-07T00:16:24;530.30;;;32.97;;
54037;SDS011;39954;48.844;9.726;2023-05-07T00:19:20;297.77;;;18.33;;
54037;SDS011;39954;48.844;9.726;2023-05-07T00:20:29;587.22;;;38.90;;
54037;SDS011;39954;48.844;9.726;2023-05-07T00:21:31;595.72;;;37.20;;
54037;SDS011;39954;48.844;9.726;2023-05-07T00:22:36;349.40;;;21.15;;
54037;SDS011;39954;48.844;9.726;2023-05-07T00:25:31;623.72;;;41.05;;
54037;SDS011;39954;48.844;9.726;2023-05-07T00:26:36;419.35;;;27.23;;
54037;SDS011;39954;48.844;9.726;2023-05-07T00:27:38;519.17;;;33.63;;
54037;SDS011;39954;48.844;9.726;2023-05-07T00:28:43;640.60;;;44.08;;
54037;SDS011;39954;48.844;9.726;2023-05-07T00:29:45;577.97;;;38.63;;
54037;SDS011;39954;48.844;9.726;2023-05-07T00:30:50;537.78;;;35.13;;
54037;SDS011;39954;48.844;9.726;2023-05-07T00:31:52;540.72;;;35.53;;
54037;SDS011;39954;48.844;9.726;2023-05-07T00:32:57;519.40;;;33.85;;
54037;SDS011;39954;48.844;9.726;2023-05-07T00:33:59;603.17;;;40.55;;
54037;SDS011;39954;48.844;9.726;2023-05-07T00:35:07;556.20;;;37.00;;
54037;SDS011;39954;48.844;9.726;2023-05-07T00:36:10;588.30;;;38.55;;
54037;SDS011;39954;48.844;9.726;2023-05-07T00:37:15;538.63;;;36.75;;
54037;SDS011;39954;48.844;9.726;2023-05-07T00:38:17;397.30;;;26.52;;
54037;SDS011;39954;48.844;9.726;2023-05-07T00:39:22;587.30;;;38.40;;
54037;SDS011;39954;48.844;9.726;2023-05-07T00:40:24;584.42;;;36.75;;
54037;SDS011;39954;48.844;9.726;2023-05-07T00:41:29;593.97;;;39.22;;
54037;SDS011;39954;48.844;9.726;2023-05-07T00:42:32;507.98;;;33.03;;
54037;SDS011;39954;48.844;9.726;2023-05-07T00:43:37;507.98;;;32.50;;
54037;SDS011;39954;48.844;9.726;2023-05-07T00:44:39;557.92;;;35.38;;
54037;SDS011;39954;48.844;9.726;2023-05-07T00:45:44;451.00;;;28.70;;
54037;SDS011;39954;48.844;9.726;2023-05-07T00:46:46;515.63;;;33.42;;
54037;SDS011;39954;48.844;9.726;2023-05-07T00:47:53;544.10;;;35.55;;
54037;SDS011;39954;48.844;9.726;2023-05-07T00:48:56;557.90;;;35.72;;
54037;SDS011;39954;48.844;9.726;2023-05-07T00:50:02;535.10;;;35.22;;
54037;SDS011;39954;48.844;9.726;2023-05-07T00:51:07;559.28;;;36.28;;
54037;SDS011;39954;48.844;9.726;2023-05-07T00:52:13;384.92;;;24.48;;
54037;SDS011;39954;48.844;9.726;2023-05-07T00:53:18;516.35;;;32.95;;
54037;SDS011;39954;48.844;9.726;2023-05-07T00:54:23;627.67;;;40.67;;
54037;SDS011;39954;48.844;9.726;2023-05-07T00:55:25;534.35;;;34.80;;
54037;SDS011;39954;48.844;9.726;2023-05-07T00:56:30;571.47;;;36.53;;
54037;SDS011;39954;48.844;9.726;2023-05-07T00:57:36;593.22;;;39.08;;
54037;SDS011;39954;48.844;9.726;2023-05-07T00:58:40;616.88;;;40.45;;
54037;SDS011;39954;48.844;9.726;2023-05-07T00:59:45;583.95;;;38.55;;
54037;SDS011;39954;48.844;9.726;2023-05-07T01:04:18;552.38;;;34.88;;
54037;SDS011;39954;48.844;9.726;2023-05-07T01:05:23;521.90;;;34.42;;
54037;SDS011;39954;48.844;9.726;2023-05-07T01:06:30;573.33;;;37.15;;
54037;SDS011;39954;48.844;9.726;2023-05-07T01:09:37;612.60;;;39.72;;
54037;SDS011;39954;48.844;9.726;2023-05-07T01:10:42;606.33;;;40.05;;
54037;SDS011;39954;48.844;9.726;2023-05-07T01:11:46;595.30;;;38.00;;
54037;SDS011;39954;48.844;9.726;2023-05-07T01:12:51;324.38;;;20.67;;
54037;SDS011;39954;48.844;9.726;2023-05-07T01:13:58;540.40;;;34.80;;
54037;SDS011;39954;48.844;9.726;2023-05-07T01:15:01;534.10;;;35.35;;
54037;SDS011;39954;48.844;9.726;2023-05-07T01:16:06;355.70;;;21.98;;
54037;SDS011;39954;48.844;9.726;2023-05-07T01:17:10;443.15;;;28.98;;
54037;SDS011;39954;48.844;9.726;2023-05-07T01:18:15;604.78;;;40.35;;
54037;SDS011;39954;48.844;9.726;2023-05-07T01:19:18;578.90;;;38.80;;
54037;SDS011;39954;48.844;9.726;2023-05-07T01:20:23;537.78;;;34.53;;
54037;SDS011;39954;48.844;9.726;2023-05-07T01:21:26;487.42;;;30.98;;
54037;SDS011;39954;48.844;9.726;2023-05-07T01:22:39;632.13;;;42.25;;
54037;SDS011;39954;48.844;9.726;2023-05-07T01:23:41;583.92;;;38.22;;
54037;SDS011;39954;48.844;9.726;2023-05-07T01:24:47;504.42;;;33.40;;
54037;SDS011;39954;48.844;9.726;2023-05-07T01:25:52;604.95;;;40.10;;
54037;SDS011;39954;48.844;9.726;2023-05-07T01:26:57;380.80;;;24.95;;
54037;SDS011;39954;48.844;9.726;2023-05-07T01:27:59;329.92;;;21.63;;
54037;SDS011;39954;48.844;9.726;2023-05-07T01:29:04;535.95;;;35.80;;
54037;SDS011;39954;48.844;9.726;2023-05-07T01:30:06;528.55;;;34.28;;
54037;SDS011;39954;48.844;9.726;2023-05-07T01:31:13;594.13;;;39.05;;
54037;SDS011;39954;48.844;9.726;2023-05-07T01:32:17;572.20;;;38.13;;
54037;SDS011;39954;48.844;9.726;2023-05-07T01:33:25;652.92;;;43.05;;
54037;SDS011;39954;48.844;9.726;2023-05-07T01:34:31;599.17;;;38.70;;
54037;SDS011;39954;48.844;9.726;2023-05-07T01:35:39;349.73;;;22.52;;
54037;SDS011;39954;48.844;9.726;2023-05-07T01:38:10;576.70;;;37.72;;
54037;SDS011;39954;48.844;9.726;2023-05-07T01:39:13;575.45;;;37.63;;
54037;SDS011;39954;48.844;9.726;2023-05-07T01:40:19;561.42;;;36.92;;
54037;SDS011;39954;48.844;9.726;2023-05-07T01:41:22;521.42;;;32.63;;
54037;SDS011;39954;48.844;9.726;2023-05-07T01:42:27;537.50;;;35.95;;
54037;SDS011;39954;48.844;9.726;2023-05-07T01:43:31;604.05;;;37.50;;
54037;SDS011;39954;48.844;9.726;2023-05-07T01:44:35;658.03;;;44.60;;
54037;SDS011;39954;48.844;9.726;2023-05-07T01:45:37;594.13;;;38.25;;
54037;SDS011;39954;48.844;9.726;2023-05-07T01:46:43;514.97;;;34.85;;
54037;SDS011;39954;48.844;9.726;2023-05-07T01:47:45;545.78;;;34.38;;
54037;SDS011;39954;48.844;9.726;2023-05-07T01:48:50;566.33;;;36.53;;
54037;SDS011;39954;48.844;9.726;2023-05-07T01:49:54;650.30;;;42.55;;
54037;SDS011;39954;48.844;9.726;2023-05-07T01:51:03;793.05;;;54.05;;
54037;SDS011;39954;48.844;9.726;2023-05-07T01:52:07;622.92;;;40.53;;
54037;SDS011;39954;48.844;9.726;2023-05-07T01:55:06;609.45;;;42.15;;
54037;SDS011;39954;48.844;9.726;2023-05-07T01:56:11;562.13;;;37.45;;
54037;SDS011;39954;48.844;9.726;2023-05-07T01:57:13;416.20;;;27.35;;
54037;SDS011;39954;48.844;9.726;2023-05-07T01:58:18;532.65;;;35.38;;
54037;SDS011;39954;48.844;9.726;2023-05-07T01:59:20;604.55;;;39.28;;
54037;SDS011;39954;48.844;9.726;2023-05-07T02:00:25;609.67;;;40.55;;
54037;SDS011;39954;48.844;9.726;2023-05-07T02:01:30;618.17;;;42.45;;
54037;SDS011;39954;48.844;9.726;2023-05-07T02:02:32;389.35;;;25.92;;
54037;SDS011;39954;48.844;9.726;2023-05-07T02:03:38;623.95;;;43.33;;
54037;SDS011;39954;48.844;9.726;2023-05-07T02:04:40;564.20;;;36.72;;
54037;SDS011;39954;48.844;9.726;2023-05-07T02:07:19;537.35;;;36.35;;
54037;SDS011;39954;48.844;9.726;2023-05-07T02:08:23;601.28;;;39.97;;
54037;SDS011;39954;48.844;9.726;2023-05-07T02:09:26;1643.45;;;136.43;;
54037;SDS011;39954;48.844;9.726;2023-05-07T02:10:33;649.20;;;44.30;;
54037;SDS011;39954;48.844;9.726;2023-05-07T02:11:35;525.15;;;34.20;;
54037;SDS011;39954;48.844;9.726;2023-05-07T02:12:40;608.05;;;41.45;;
54037;SDS011;39954;48.844;9.726;2023-05-07T02:13:42;592.53;;;40.08;;
54037;SDS011;39954;48.844;9.726;2023-05-07T02:14:47;625.40;;;41.67;;
54037;SDS011;39954;48.844;9.726;2023-05-07T02:15:49;563.97;;;37.95;;
54037;SDS011;39954;48.844;9.726;2023-05-07T02:16:55;604.40;;;40.85;;
54037;SDS011;39954;48.844;9.726;2023-05-07T02:17:57;1649.50;;;139.35;;
54037;SDS011;39954;48.844;9.726;2023-05-07T02:19:03;549.67;;;36.08;;
54037;SDS011;39954;48.844;9.726;2023-05-07T02:20:06;569.65;;;38.03;;
54037;SDS011;39954;48.844;9.726;2023-05-07T02:21:14;576.67;;;38.28;;
54037;SDS011;39954;48.844;9.726;2023-05-07T02:22:16;551.22;;;34.58;;
54037;SDS011;39954;48.844;9.726;2023-05-07T02:23:21;504.15;;;31.40;;
54037;SDS011;39954;48.844;9.726;2023-05-07T02:24:23;571.85;;;36.72;;
54037;SDS011;39954;48.844;9.726;2023-05-07T02:27:32;603.85;;;40.38;;
54037;SDS011;39954;48.844;9.726;2023-05-07T02:28:36;657.70;;;44.47;;
54037;SDS011;39954;48.844;9.726;2023-05-07T02:29:39;656.60;;;43.40;;
54037;SDS011;39954;48.844;9.726;2023-05-07T02:30:43;438.60;;;27.85;;
54037;SDS011;39954;48.844;9.726;2023-05-07T02:31:45;565.92;;;35.75;;
54037;SDS011;39954;48.844;9.726;2023-05-07T02:32:52;543.15;;;37.28;;
54037;SDS011;39954;48.844;9.726;2023-05-07T02:33:54;608.08;;;39.00;;
54037;SDS011;39954;48.844;9.726;2023-05-07T02:34:59;1933.15;;;172.80;;
54037;SDS011;39954;48.844;9.726;2023-05-07T02:36:07;558.92;;;37.20;;
54037;SDS011;39954;48.844;9.726;2023-05-07T02:37:13;429.45;;;27.00;;
54037;SDS011;39954;48.844;9.726;2023-05-07T02:38:15;406.33;;;25.60;;
54037;SDS011;39954;48.844;9.726;2023-05-07T02:39:20;530.60;;;36.88;;
54037;SDS011;39954;48.844;9.726;2023-05-07T02:40:22;520.13;;;35.97;;
54037;SDS011;39954;48.844;9.726;2023-05-07T02:41:27;602.10;;;41.92;;
54037;SDS011;39954;48.844;9.726;2023-05-07T02:42:32;585.88;;;40.28;;
54037;SDS011;39954;48.844;9.726;2023-05-07T02:43:36;648.45;;;44.88;;
54037;SDS011;39954;48.844;9.726;2023-05-07T02:44:38;744.53;;;101.53;;
54037;SDS011;39954;48.844;9.726;2023-05-07T02:45:43;589.00;;;155.50;;
54037;SDS011;39954;48.844;9.726;2023-05-07T02:46:45;637.85;;;120.18;;
54037;SDS011;39954;48.844;9.726;2023-05-07T02:47:50;654.35;;;132.23;;
54037;SDS011;39954;48.844;9.726;2023-05-07T02:48:52;440.13;;;115.68;;
54037;SDS011;39954;48.844;9.726;2023-05-07T02:49:57;629.00;;;145.73;;
54037;SDS011;39954;48.844;9.726;2023-05-07T02:50:59;666.17;;;162.85;;
54037;SDS011;39954;48.844;9.726;2023-05-07T02:52:04;716.67;;;153.27;;
54037;SDS011;39954;48.844;9.726;2023-05-07T02:53:06;472.88;;;129.98;;
54037;SDS011;39954;48.844;9.726;2023-05-07T02:54:11;701.63;;;172.15;;
54037;SDS011;39954;48.844;9.726;2023-05-07T02:55:13;647.65;;;172.93;;
54037;SDS011;39954;48.844;9.726;2023-05-07T02:56:18;714.70;;;212.27;;
54037;SDS011;39954;48.844;9.726;2023-05-07T02:57:20;678.38;;;204.98;;
54037;SDS011;39954;48.844;9.726;2023-05-07T02:58:27;713.95;;;158.73;;
54037;SDS011;39954;48.844;9.726;2023-05-07T02:59:30;843.47;;;340.45;;
54037;SDS011;39954;48.844;9.726;2023-05-07T03:00:34;777.95;;;457.02;;
54037;SDS011;39954;48.844;9.726;2023-05-07T03:01:36;1174.25;;;695.28;;
54037;SDS011;39954;48.844;9.726;2023-05-07T03:02:41;597.72;;;115.95;;
54037;SDS011;39954;48.844;9.726;2023-05-07T03:03:43;754.13;;;57.00;;
54037;SDS011;39954;48.844;9.726;2023-05-07T03:04:48;513.25;;;55.13;;
54037;SDS011;39954;48.844;9.726;2023-05-07T03:05:50;451.67;;;49.25;;
54037;SDS011;39954;48.844;9.726;2023-05-07T03:06:55;665.78;;;76.65;;
54037;SDS011;39954;48.844;9.726;2023-05-07T03:07:57;657.72;;;77.47;;
54037;SDS011;39954;48.844;9.726;2023-05-07T03:09:02;1999.90;;;230.32;;
54037;SDS011;39954;48.844;9.726;2023-05-07T03:10:05;487.35;;;67.00;;
54037;SDS011;39954;48.844;9.726;2023-05-07T03:11:10;614.22;;;55.53;;
54037;SDS011;39954;48.844;9.726;2023-05-07T03:12:12;526.92;;;42.30;;
54037;SDS011;39954;48.844;9.726;2023-05-07T03:13:17;698.58;;;60.58;;
54037;SDS011;39954;48.844;9.726;2023-05-07T03:14:22;515.00;;;40.08;;
54037;SDS011;39954;48.844;9.726;2023-05-07T03:15:26;692.78;;;52.30;;
54037;SDS011;39954;48.844;9.726;2023-05-07T03:16:28;672.88;;;60.95;;
54037;SDS011;39954;48.844;9.726;2023-05-07T03:17:33;675.25;;;83.07;;
54037;SDS011;39954;48.844;9.726;2023-05-07T03:18:35;657.15;;;68.90;;
54037;SDS011;39954;48.844;9.726;2023-05-07T03:19:40;749.60;;;85.57;;
54037;SDS011;39954;48.844;9.726;2023-05-07T03:20:42;770.35;;;83.50;;
54037;SDS011;39954;48.844;9.726;2023-05-07T03:21:47;718.88;;;85.03;;
54037;SDS011;39954;48.844;9.726;2023-05-07T03:22:49;709.95;;;85.20;;
54037;SDS011;39954;48.844;9.726;2023-05-07T03:23:54;760.55;;;150.77;;
54037;SDS011;39954;48.844;9.726;2023-05-07T03:24:56;683.58;;;150.75;;
54037;SDS011;39954;48.844;9.726;2023-05-07T03:26:01;738.83;;;122.07;;
54037;SDS011;39954;48.844;9.726;2023-05-07T03:27:03;669.28;;;118.07;;
54037;SDS011;39954;48.844;9.726;2023-05-07T03:28:08;654.42;;;133.38;;
54037;SDS011;39954;48.844;9.726;2023-05-07T03:29:12;585.45;;;113.28;;
54037;SDS011;39954;48.844;9.726;2023-05-07T03:30:17;450.65;;;111.20;;
54037;SDS011;39954;48.844;9.726;2023-05-07T03:31:22;686.90;;;158.15;;
54037;SDS011;39954;48.844;9.726;2023-05-07T03:32:24;675.42;;;141.00;;
54037;SDS011;39954;48.844;9.726;2023-05-07T03:33:29;725.50;;;122.05;;
54037;SDS011;39954;48.844;9.726;2023-05-07T03:34:31;719.13;;;103.18;;
54037;SDS011;39954;48.844;9.726;2023-05-07T03:35:35;591.28;;;85.50;;
54037;SDS011;39954;48.844;9.726;2023-05-07T03:36:37;595.45;;;88.53;;
54037;SDS011;39954;48.844;9.726;2023-05-07T03:37:42;702.78;;;96.78;;
54037;SDS011;39954;48.844;9.726;2023-05-07T03:38:44;718.80;;;112.03;;
54037;SDS011;39954;48.844;9.726;2023-05-07T03:39:49;520.30;;;93.93;;
54037;SDS011;39954;48.844;9.726;2023-05-07T03:40:51;648.80;;;94.72;;
54037;SDS011;39954;48.844;9.726;2023-05-07T03:41:56;616.78;;;78.22;;
54037;SDS011;39954;48.844;9.726;2023-05-07T03:42:59;814.90;;;89.07;;
54037;SDS011;39954;48.844;9.726;2023-05-07T03:44:04;450.38;;;46.83;;
54037;SDS011;39954;48.844;9.726;2023-05-07T03:45:06;519.95;;;45.75;;
54037;SDS011;39954;48.844;9.726;2023-05-07T03:46:15;671.22;;;56.10;;
54037;SDS011;39954;48.844;9.726;2023-05-07T03:47:17;615.47;;;46.85;;
54037;SDS011;39954;48.844;9.726;2023-05-07T03:48:22;631.75;;;49.10;;
54037;SDS011;39954;48.844;9.726;2023-05-07T03:49:24;784.78;;;62.60;;
54037;SDS011;39954;48.844;9.726;2023-05-07T03:50:28;508.90;;;37.95;;
54037;SDS011;39954;48.844;9.726;2023-05-07T03:51:31;656.83;;;50.55;;
54037;SDS011;39954;48.844;9.726;2023-05-07T03:52:37;735.00;;;58.75;;
54037;SDS011;39954;48.844;9.726;2023-05-07T03:53:39;667.97;;;53.42;;
54037;SDS011;39954;48.844;9.726;2023-05-07T03:54:44;514.28;;;38.45;;
54037;SDS011;39954;48.844;9.726;2023-05-07T03:55:46;671.97;;;52.17;;
54037;SDS011;39954;48.844;9.726;2023-05-07T03:56:51;531.80;;;38.67;;
54037;SDS011;39954;48.844;9.726;2023-05-07T03:57:53;429.73;;;30.25;;
54037;SDS011;39954;48.844;9.726;2023-05-07T03:58:58;777.92;;;57.90;;
54037;SDS011;39954;48.844;9.726;2023-05-07T04:00:00;563.45;;;41.67;;
54037;SDS011;39954;48.844;9.726;2023-05-07T04:01:05;601.25;;;42.50;;
54037;SDS011;39954;48.844;9.726;2023-05-07T04:02:11;621.13;;;45.88;;
54037;SDS011;39954;48.844;9.726;2023-05-07T04:03:16;430.08;;;30.38;;
54037;SDS011;39954;48.844;9.726;2023-05-07T04:04:19;563.65;;;39.78;;
54037;SDS011;39954;48.844;9.726;2023-05-07T04:05:24;534.13;;;38.47;;
54037;SDS011;39954;48.844;9.726;2023-05-07T04:06:27;427.60;;;29.63;;
54037;SDS011;39954;48.844;9.726;2023-05-07T04:07:31;471.92;;;33.53;;
54037;SDS011;39954;48.844;9.726;2023-05-07T04:08:33;521.55;;;36.63;;
54037;SDS011;39954;48.844;9.726;2023-05-07T04:09:38;631.90;;;45.65;;
54037;SDS011;39954;48.844;9.726;2023-05-07T04:10:40;628.65;;;46.90;;
54037;SDS011;39954;48.844;9.726;2023-05-07T04:11:45;484.80;;;34.63;;
54037;SDS011;39954;48.844;9.726;2023-05-07T04:12:47;536.45;;;38.45;;
54037;SDS011;39954;48.844;9.726;2023-05-07T04:13:52;586.78;;;42.10;;
54037;SDS011;39954;48.844;9.726;2023-05-07T04:14:54;580.08;;;40.97;;
54037;SDS011;39954;48.844;9.726;2023-05-07T04:15:58;593.00;;;42.42;;
54037;SDS011;39954;48.844;9.726;2023-05-07T04:17:03;458.27;;;33.55;;
54037;SDS011;39954;48.844;9.726;2023-05-07T04:18:11;566.45;;;41.60;;
54037;SDS011;39954;48.844;9.726;2023-05-07T04:19:13;448.10;;;31.80;;
54037;SDS011;39954;48.844;9.726;2023-05-07T04:20:18;397.73;;;29.38;;
54037;SDS011;39954;48.844;9.726;2023-05-07T04:21:20;576.67;;;41.80;;
54037;SDS011;39954;48.844;9.726;2023-05-07T04:22:25;589.28;;;44.25;;
54037;SDS011;39954;48.844;9.726;2023-05-07T04:23:27;591.38;;;43.38;;
54037;SDS011;39954;48.844;9.726;2023-05-07T04:24:32;481.17;;;35.40;;
54037;SDS011;39954;48.844;9.726;2023-05-07T04:25:34;587.70;;;46.00;;
54037;SDS011;39954;48.844;9.726;2023-05-07T04:26:39;676.50;;;51.53;;
54037;SDS011;39954;48.844;9.726;2023-05-07T04:27:41;656.65;;;51.00;;
54037;SDS011;39954;48.844;9.726;2023-05-07T04:28:46;534.70;;;39.60;;
54037;SDS011;39954;48.844;9.726;2023-05-07T04:29:48;575.72;;;41.85;;
54037;SDS011;39954;48.844;9.726;2023-05-07T04:30:53;600.67;;;44.22;;
54037;SDS011;39954;48.844;9.726;2023-05-07T04:31:55;610.80;;;44.22;;
54037;SDS011;39954;48.844;9.726;2023-05-07T04:33:00;485.25;;;34.22;;
54037;SDS011;39954;48.844;9.726;2023-05-07T04:34:05;643.38;;;48.55;;
54037;SDS011;39954;48.844;9.726;2023-05-07T04:35:10;564.83;;;41.13;;
54037;SDS011;39954;48.844;9.726;2023-05-07T04:36:12;626.00;;;46.25;;
54037;SDS011;39954;48.844;9.726;2023-05-07T04:37:17;675.33;;;51.55;;
54037;SDS011;39954;48.844;9.726;2023-05-07T04:38:19;550.63;;;41.08;;
54037;SDS011;39954;48.844;9.726;2023-05-07T04:39:25;558.35;;;39.15;;
54037;SDS011;39954;48.844;9.726;2023-05-07T04:40:27;581.88;;;40.05;;
54037;SDS011;39954;48.844;9.726;2023-05-07T04:41:31;587.58;;;41.72;;
54037;SDS011;39954;48.844;9.726;2023-05-07T04:42:34;650.85;;;49.85;;
54037;SDS011;39954;48.844;9.726;2023-05-07T04:43:39;659.90;;;49.50;;
54037;SDS011;39954;48.844;9.726;2023-05-07T04:44:41;681.10;;;51.13;;
54037;SDS011;39954;48.844;9.726;2023-05-07T04:45:49;631.30;;;46.60;;
54037;SDS011;39954;48.844;9.726;2023-05-07T04:46:52;531.33;;;37.70;;
54037;SDS011;39954;48.844;9.726;2023-05-07T04:47:56;567.17;;;40.47;;
54037;SDS011;39954;48.844;9.726;2023-05-07T04:48:58;598.67;;;43.53;;
54037;SDS011;39954;48.844;9.726;2023-05-07T04:50:06;595.35;;;43.95;;
54037;SDS011;39954;48.844;9.726;2023-05-07T04:51:10;636.55;;;49.40;;
54037;SDS011;39954;48.844;9.726;2023-05-07T04:52:15;508.67;;;34.75;;
54037;SDS011;39954;48.844;9.726;2023-05-07T04:53:17;588.70;;;40.88;;
54037;SDS011;39954;48.844;9.726;2023-05-07T04:54:22;610.15;;;45.30;;
54037;SDS011;39954;48.844;9.726;2023-05-07T04:55:24;574.90;;;42.15;;
54037;SDS011;39954;48.844;9.726;2023-05-07T04:56:29;600.78;;;42.38;;
54037;SDS011;39954;48.844;9.726;2023-05-07T04:57:31;620.40;;;45.97;;
54037;SDS011;39954;48.844;9.726;2023-05-07T04:58:37;668.97;;;50.55;;
54037;SDS011;39954;48.844;9.726;2023-05-07T04:59:39;571.17;;;43.42;;
54037;SDS011;39954;48.844;9.726;2023-05-07T05:00:43;486.88;;;35.10;;
54037;SDS011;39954;48.844;9.726;2023-05-07T05:01:46;650.38;;;46.42;;
54037;SDS011;39954;48.844;9.726;2023-05-07T05:02:51;676.97;;;52.47;;
54037;SDS011;39954;48.844;9.726;2023-05-07T05:03:53;596.85;;;42.72;;
54037;SDS011;39954;48.844;9.726;2023-05-07T05:04:58;529.25;;;39.65;;
54037;SDS011;39954;48.844;9.726;2023-05-07T05:06:03;537.90;;;40.92;;
54037;SDS011;39954;48.844;9.726;2023-05-07T05:07:07;460.77;;;32.85;;
54037;SDS011;39954;48.844;9.726;2023-05-07T05:08:10;585.63;;;40.38;;
54037;SDS011;39954;48.844;9.726;2023-05-07T05:09:14;1434.03;;;130.95;;
54037;SDS011;39954;48.844;9.726;2023-05-07T05:10:17;598.70;;;42.80;;
54037;SDS011;39954;48.844;9.726;2023-05-07T05:11:25;461.75;;;32.55;;
54037;SDS011;39954;48.844;9.726;2023-05-07T05:12:27;644.10;;;47.97;;
54037;SDS011;39954;48.844;9.726;2023-05-07T05:13:31;615.72;;;44.85;;
54037;SDS011;39954;48.844;9.726;2023-05-07T05:14:33;623.45;;;44.95;;
54037;SDS011;39954;48.844;9.726;2023-05-07T05:15:38;762.05;;;59.42;;
54037;SDS011;39954;48.844;9.726;2023-05-07T05:16:40;621.63;;;47.85;;
54037;SDS011;39954;48.844;9.726;2023-05-07T05:17:45;665.50;;;49.22;;
54037;SDS011;39954;48.844;9.726;2023-05-07T05:18:47;736.20;;;58.15;;
54037;SDS011;39954;48.844;9.726;2023-05-07T05:19:53;568.95;;;41.75;;
54037;SDS011;39954;48.844;9.726;2023-05-07T05:20:55;589.78;;;43.22;;
54037;SDS011;39954;48.844;9.726;2023-05-07T05:22:02;601.53;;;44.72;;
54037;SDS011;39954;48.844;9.726;2023-05-07T05:23:05;587.25;;;43.80;;
54037;SDS011;39954;48.844;9.726;2023-05-07T05:24:12;566.30;;;40.60;;
54037;SDS011;39954;48.844;9.726;2023-05-07T05:25:14;755.03;;;59.45;;
54037;SDS011;39954;48.844;9.726;2023-05-07T05:26:19;604.78;;;43.35;;
54037;SDS011;39954;48.844;9.726;2023-05-07T05:27:22;570.70;;;41.03;;
54037;SDS011;39954;48.844;9.726;2023-05-07T05:28:27;838.10;;;66.55;;
54037;SDS011;39954;48.844;9.726;2023-05-07T05:29:29;605.70;;;43.10;;
54037;SDS011;39954;48.844;9.726;2023-05-07T05:30:34;583.00;;;42.60;;
54037;SDS011;39954;48.844;9.726;2023-05-07T05:31:36;591.60;;;41.92;;
54037;SDS011;39954;48.844;9.726;2023-05-07T05:32:43;674.13;;;48.88;;
54037;SDS011;39954;48.844;9.726;2023-05-07T05:33:45;608.55;;;45.92;;
54037;SDS011;39954;48.844;9.726;2023-05-07T05:34:50;668.47;;;46.97;;
54037;SDS011;39954;48.844;9.726;2023-05-07T05:35:53;677.40;;;50.22;;
54037;SDS011;39954;48.844;9.726;2023-05-07T05:36:58;562.08;;;39.90;;
54037;SDS011;39954;48.844;9.726;2023-05-07T05:38:03;624.25;;;43.35;;
54037;SDS011;39954;48.844;9.726;2023-05-07T05:39:08;549.17;;;38.15;;
54037;SDS011;39954;48.844;9.726;2023-05-07T05:40:10;555.70;;;39.55;;
54037;SDS011;39954;48.844;9.726;2023-05-07T05:41:16;773.05;;;57.72;;
54037;SDS011;39954;48.844;9.726;2023-05-07T05:42:18;434.45;;;30.83;;
54037;SDS011;39954;48.844;9.726;2023-05-07T05:43:22;463.55;;;32.28;;
54037;SDS011;39954;48.844;9.726;2023-05-07T05:44:24;599.33;;;44.30;;
54037;SDS011;39954;48.844;9.726;2023-05-07T05:45:29;513.45;;;37.20;;
54037;SDS011;39954;48.844;9.726;2023-05-07T05:46:31;603.42;;;43.60;;
54037;SDS011;39954;48.844;9.726;2023-05-07T05:47:37;625.83;;;47.45;;
54037;SDS011;39954;48.844;9.726;2023-05-07T05:48:40;534.53;;;38.95;;
54037;SDS011;39954;48.844;9.726;2023-05-07T05:49:44;516.30;;;38.17;;
54037;SDS011;39954;48.844;9.726;2023-05-07T05:50:46;612.45;;;45.15;;
54037;SDS011;39954;48.844;9.726;2023-05-07T05:51:51;665.72;;;50.17;;
54037;SDS011;39954;48.844;9.726;2023-05-07T05:52:53;600.90;;;45.55;;
54037;SDS011;39954;48.844;9.726;2023-05-07T05:54:03;628.50;;;46.78;;
54037;SDS011;39954;48.844;9.726;2023-05-07T05:55:06;558.55;;;41.00;;
54037;SDS011;39954;48.844;9.726;2023-05-07T05:56:11;506.13;;;38.28;;
54037;SDS011;39954;48.844;9.726;2023-05-07T05:57:13;637.58;;;49.42;;
54037;SDS011;39954;48.844;9.726;2023-05-07T05:58:18;456.75;;;33.83;;
54037;SDS011;39954;48.844;9.726;2023-05-07T05:59:20;645.92;;;49.50;;
54037;SDS011;39954;48.844;9.726;2023-05-07T06:00:25;507.88;;;38.42;;
54037;SDS011;39954;48.844;9.726;2023-05-07T06:01:28;490.17;;;39.20;;
54037;SDS011;39954;48.844;9.726;2023-05-07T06:02:32;584.28;;;49.13;;
54037;SDS011;39954;48.844;9.726;2023-05-07T06:03:35;656.13;;;66.70;;
54037;SDS011;39954;48.844;9.726;2023-05-07T06:04:39;678.40;;;95.25;;
54037;SDS011;39954;48.844;9.726;2023-05-07T06:05:41;871.65;;;288.92;;
54037;SDS011;39954;48.844;9.726;2023-05-07T06:06:46;1011.13;;;497.10;;
54037;SDS011;39954;48.844;9.726;2023-05-07T06:07:48;812.50;;;63.03;;
54037;SDS011;39954;48.844;9.726;2023-05-07T06:08:53;1103.45;;;119.93;;
54037;SDS011;39954;48.844;9.726;2023-05-07T06:09:58;770.03;;;184.90;;
54037;SDS011;39954;48.844;9.726;2023-05-07T06:11:02;1348.30;;;944.70;;
54037;SDS011;39954;48.844;9.726;2023-05-07T06:12:05;1109.65;;;808.13;;
54037;SDS011;39954;48.844;9.726;2023-05-07T06:13:09;1141.88;;;793.80;;
54037;SDS011;39954;48.844;9.726;2023-05-07T06:14:12;1226.20;;;804.28;;
54037;SDS011;39954;48.844;9.726;2023-05-07T06:15:16;1236.38;;;799.90;;
54037;SDS011;39954;48.844;9.726;2023-05-07T06:16:18;456.42;;;28.95;;
54037;SDS011;39954;48.844;9.726;2023-05-07T06:17:23;558.70;;;35.88;;
54037;SDS011;39954;48.844;9.726;2023-05-07T06:18:25;532.30;;;34.00;;
54037;SDS011;39954;48.844;9.726;2023-05-07T06:19:30;537.70;;;34.72;;
54037;SDS011;39954;48.844;9.726;2023-05-07T06:20:35;586.97;;;37.88;;
54037;SDS011;39954;48.844;9.726;2023-05-07T06:21:37;588.53;;;39.13;;
54037;SDS011;39954;48.844;9.726;2023-05-07T06:22:42;510.83;;;33.10;;
54037;SDS011;39954;48.844;9.726;2023-05-07T06:23:44;557.75;;;36.72;;
54037;SDS011;39954;48.844;9.726;2023-05-07T06:24:49;585.45;;;41.05;;
54037;SDS011;39954;48.844;9.726;2023-05-07T06:25:54;578.15;;;40.38;;